sensor_id;sensor_type;location;lat;lon;timestamp;pressure;altitude;pressure_sealevel;temperature;humidity
32875;BME280;40468;42.128;24.750;2023-06-26T00:00:39;99190.63;;;24.17;59.19
32875;BME280;40468;42.128;24.750;2023-06-26T00:02:11;99191.94;;;24.21;59.16
32875;BME280;40468;42.128;24.750;2023-06-26T00:03:42;99190.94;;;24.22;59.00
32875;BME280;40468;42.128;24.750;2023-06-26T00:05:14;99192.59;;;24.23;58.82
32875;BME280;40468;42.128;24.750;2023-06-26T00:06:46;99193.44;;;24.23;58.91
32875;BME280;40468;42.128;24.750;2023-06-26T00:08:18;99192.41;;;24.24;58.56
32875;BME280;40468;42.128;24.750;2023-06-26T00:09:50;99193.09;;;24.26;59.06
32875;BME280;40468;42.128;24.750;2023-06-26T00:11:21;99189.41;;;24.27;58.78
32875;BME280;40468;42.128;24.750;2023-06-26T00:12:54;99186.94;;;24.26;58.20
32875;BME280;40468;42.128;24.750;2023-06-26T00:14:26;99182.50;;;24.10;58.82
32875;BME280;40468;42.128;24.750;2023-06-26T00:15:58;99180.16;;;24.15;58.87
32875;BME280;40468;42.128;24.750;2023-06-26T00:17:33;99176.78;;;24.21;58.89
32875;BME280;40468;42.128;24.750;2023-06-26T00:19:07;99189.75;;;24.24;58.58
32875;BME280;40468;42.128;24.750;2023-06-26T00:20:39;99183.13;;;24.20;58.73
32875;BME280;40468;42.128;24.750;2023-06-26T00:22:11;99194.72;;;24.27;58.49
32875;BME280;40468;42.128;24.750;2023-06-26T00:23:43;99186.59;;;24.29;58.79
32875;BME280;40468;42.128;24.750;2023-06-26T00:25:15;99190.91;;;24.30;58.75
32875;BME280;40468;42.128;24.750;2023-06-26T00:26:47;99176.94;;;24.28;58.56
32875;BME280;40468;42.128;24.750;2023-06-26T00:28:20;99199.72;;;24.30;58.80
32875;BME280;40468;42.128;24.750;2023-06-26T00:29:51;99195.63;;;24.12;58.97
32875;BME280;40468;42.128;24.750;2023-06-26T00:31:23;99196.59;;;24.19;59.12
32875;BME280;40468;42.128;24.750;2023-06-26T00:32:55;99198.91;;;24.22;58.63
32875;BME280;40468;42.128;24.750;2023-06-26T00:34:27;99199.72;;;24.22;58.55
32875;BME280;40468;42.128;24.750;2023-06-26T00:35:59;99204.56;;;24.27;58.74
32875;BME280;40468;42.128;24.750;2023-06-26T00:37:30;99200.72;;;24.29;59.07
32875;BME280;40468;42.128;24.750;2023-06-26T00:39:02;99198.88;;;24.30;58.62
32875;BME280;40468;42.128;24.750;2023-06-26T00:40:34;99194.38;;;24.30;58.53
32875;BME280;40468;42.128;24.750;2023-06-26T00:42:07;99198.88;;;24.30;58.93
32875;BME280;40468;42.128;24.750;2023-06-26T00:43:40;99200.53;;;24.31;58.93
32875;BME280;40468;42.128;24.750;2023-06-26T00:45:12;99196.06;;;24.32;58.99
32875;BME280;40468;42.128;24.750;2023-06-26T00:46:45;99197.88;;;24.31;58.77
32875;BME280;40468;42.128;24.750;2023-06-26T00:48:17;99205.84;;;24.31;59.08
32875;BME280;40468;42.128;24.750;2023-06-26T00:49:50;99194.72;;;24.27;58.68
32875;BME280;40468;42.128;24.750;2023-06-26T00:51:22;99201.06;;;24.26;59.04
32875;BME280;40468;42.128;24.750;2023-06-26T00:52:53;99199.41;;;24.25;59.21
32875;BME280;40468;42.128;24.750;2023-06-26T00:54:31;99204.75;;;24.25;58.78
32875;BME280;40468;42.128;24.750;2023-06-26T00:56:03;99197.25;;;24.21;58.97
32875;BME280;40468;42.128;24.750;2023-06-26T00:57:36;99192.28;;;24.18;59.00
32875;BME280;40468;42.128;24.750;2023-06-26T00:59:10;99195.09;;;24.16;59.39
32875;BME280;40468;42.128;24.750;2023-06-26T01:00:42;99191.63;;;24.16;59.61
32875;BME280;40468;42.128;24.750;2023-06-26T01:02:16;99188.13;;;24.15;59.60
32875;BME280;40468;42.128;24.750;2023-06-26T01:03:50;99193.78;;;24.12;59.29
32875;BME280;40468;42.128;24.750;2023-06-26T01:05:22;99188.63;;;24.11;59.46
32875;BME280;40468;42.128;24.750;2023-06-26T01:06:55;99188.81;;;24.09;59.57
32875;BME280;40468;42.128;24.750;2023-06-26T01:08:27;99181.88;;;24.00;60.09
32875;BME280;40468;42.128;24.750;2023-06-26T01:10:00;99191.34;;;24.02;60.14
32875;BME280;40468;42.128;24.750;2023-06-26T01:11:33;99188.84;;;24.01;59.74
32875;BME280;40468;42.128;24.750;2023-06-26T01:13:04;99189.50;;;24.03;59.89
32875;BME280;40468;42.128;24.750;2023-06-26T01:14:37;99177.38;;;24.00;59.92
32875;BME280;40468;42.128;24.750;2023-06-26T01:16:10;99179.38;;;23.98;60.29
32875;BME280;40468;42.128;24.750;2023-06-26T01:17:42;99172.88;;;24.01;60.39
32875;BME280;40468;42.128;24.750;2023-06-26T01:19:19;99161.28;;;23.86;60.43
32875;BME280;40468;42.128;24.750;2023-06-26T01:20:55;99173.06;;;23.91;60.28
32875;BME280;40468;42.128;24.750;2023-06-26T01:22:36;99180.88;;;23.93;60.37
32875;BME280;40468;42.128;24.750;2023-06-26T01:24:16;99175.88;;;23.90;60.72
32875;BME280;40468;42.128;24.750;2023-06-26T01:26:11;99175.25;;;23.88;60.67
32875;BME280;40468;42.128;24.750;2023-06-26T01:27:44;99177.09;;;23.87;60.62
32875;BME280;40468;42.128;24.750;2023-06-26T01:29:17;99182.28;;;23.72;60.78
32875;BME280;40468;42.128;24.750;2023-06-26T01:30:50;99175.59;;;23.76;60.69
32875;BME280;40468;42.128;24.750;2023-06-26T01:32:23;99172.59;;;23.79;60.74
32875;BME280;40468;42.128;24.750;2023-06-26T01:33:55;99162.78;;;23.80;60.63
32875;BME280;40468;42.128;24.750;2023-06-26T01:35:28;99162.66;;;23.73;60.88
32875;BME280;40468;42.128;24.750;2023-06-26T01:37:00;99168.63;;;23.75;60.89
32875;BME280;40468;42.128;24.750;2023-06-26T01:38:33;99166.13;;;23.74;60.92
32875;BME280;40468;42.128;24.750;2023-06-26T01:40:06;99160.44;;;23.69;61.23
32875;BME280;40468;42.128;24.750;2023-06-26T01:41:39;99157.84;;;23.52;61.49
32875;BME280;40468;42.128;24.750;2023-06-26T01:43:20;99160.31;;;23.54;61.36
32875;BME280;40468;42.128;24.750;2023-06-26T01:44:55;99160.16;;;23.55;61.59
32875;BME280;40468;42.128;24.750;2023-06-26T01:46:33;99164.47;;;23.56;61.60
32875;BME280;40468;42.128;24.750;2023-06-26T01:48:08;99162.81;;;23.55;61.78
32875;BME280;40468;42.128;24.750;2023-06-26T01:49:47;99165.28;;;23.57;61.57
32875;BME280;40468;42.128;24.750;2023-06-26T01:51:21;99162.00;;;23.55;61.80
32875;BME280;40468;42.128;24.750;2023-06-26T01:53:01;99161.47;;;23.51;61.67
32875;BME280;40468;42.128;24.750;2023-06-26T01:54:36;99157.34;;;23.49;62.28
32875;BME280;40468;42.128;24.750;2023-06-26T01:56:12;99159.16;;;23.48;62.29
32875;BME280;40468;42.128;24.750;2023-06-26T01:57:47;99161.66;;;23.50;61.90
32875;BME280;40468;42.128;24.750;2023-06-26T01:59:20;99160.97;;;23.48;62.04
32875;BME280;40468;42.128;24.750;2023-06-26T02:00:53;99162.66;;;23.49;62.02
32875;BME280;40468;42.128;24.750;2023-06-26T02:02:25;99162.66;;;23.49;62.05
32875;BME280;40468;42.128;24.750;2023-06-26T02:04:00;99164.31;;;23.50;62.34
32875;BME280;40468;42.128;24.750;2023-06-26T02:05:30;99152.72;;;23.43;62.20
32875;BME280;40468;42.128;24.750;2023-06-26T02:07:03;99167.13;;;23.48;62.22
32875;BME280;40468;42.128;24.750;2023-06-26T02:08:34;99168.13;;;23.47;62.39
32875;BME280;40468;42.128;24.750;2023-06-26T02:10:18;99172.13;;;23.43;62.09
32875;BME280;40468;42.128;24.750;2023-06-26T02:11:49;99168.81;;;23.41;62.24
32875;BME280;40468;42.128;24.750;2023-06-26T02:13:22;99170.63;;;23.41;62.41
32875;BME280;40468;42.128;24.750;2023-06-26T02:14:53;99170.81;;;23.23;62.88
32875;BME280;40468;42.128;24.750;2023-06-26T02:16:25;99176.63;;;23.26;62.83
32875;BME280;40468;42.128;24.750;2023-06-26T02:17:57;99169.97;;;23.30;62.93
32875;BME280;40468;42.128;24.750;2023-06-26T02:19:29;99166.81;;;23.27;62.88
32875;BME280;40468;42.128;24.750;2023-06-26T02:21:02;99176.44;;;23.28;63.13
32875;BME280;40468;42.128;24.750;2023-06-26T02:22:34;99171.97;;;23.28;62.76
32875;BME280;40468;42.128;24.750;2023-06-26T02:24:07;99167.47;;;23.29;63.15
32875;BME280;40468;42.128;24.750;2023-06-26T02:25:38;99171.13;;;23.28;63.16
32875;BME280;40468;42.128;24.750;2023-06-26T02:27:10;99170.13;;;23.29;63.07
32875;BME280;40468;42.128;24.750;2023-06-26T02:28:44;99171.78;;;23.30;63.28
32875;BME280;40468;42.128;24.750;2023-06-26T02:30:16;99167.66;;;23.19;63.11
32875;BME280;40468;42.128;24.750;2023-06-26T02:31:47;99170.63;;;23.24;63.24
32875;BME280;40468;42.128;24.750;2023-06-26T02:33:19;99162.00;;;23.22;63.20
32875;BME280;40468;42.128;24.750;2023-06-26T02:34:51;99172.13;;;23.27;63.15
32875;BME280;40468;42.128;24.750;2023-06-26T02:36:24;99168.63;;;23.26;63.77
32875;BME280;40468;42.128;24.750;2023-06-26T02:37:56;99155.19;;;23.20;63.33
32875;BME280;40468;42.128;24.750;2023-06-26T02:39:28;99155.69;;;23.23;63.76
32875;BME280;40468;42.128;24.750;2023-06-26T02:41:00;99158.84;;;23.27;63.40
32875;BME280;40468;42.128;24.750;2023-06-26T02:42:32;99157.19;;;23.26;63.48
32875;BME280;40468;42.128;24.750;2023-06-26T02:44:05;99155.19;;;23.28;63.36
32875;BME280;40468;42.128;24.750;2023-06-26T02:45:37;99153.38;;;23.28;63.39
32875;BME280;40468;42.128;24.750;2023-06-26T02:47:08;99166.66;;;23.28;63.55
32875;BME280;40468;42.128;24.750;2023-06-26T02:48:40;99167.31;;;23.30;63.25
32875;BME280;40468;42.128;24.750;2023-06-26T02:50:11;99171.13;;;23.28;63.19
32875;BME280;40468;42.128;24.750;2023-06-26T02:51:43;99165.66;;;23.29;63.63
32875;BME280;40468;42.128;24.750;2023-06-26T02:53:15;99159.66;;;23.27;63.70
32875;BME280;40468;42.128;24.750;2023-06-26T02:54:46;99166.81;;;23.27;63.57
32875;BME280;40468;42.128;24.750;2023-06-26T02:56:18;99166.66;;;23.28;63.40
32875;BME280;40468;42.128;24.750;2023-06-26T02:57:50;99165.66;;;23.29;63.39
32875;BME280;40468;42.128;24.750;2023-06-26T02:59:23;99155.69;;;23.31;63.26
32875;BME280;40468;42.128;24.750;2023-06-26T03:00:55;99163.66;;;23.31;63.14
32875;BME280;40468;42.128;24.750;2023-06-26T03:02:27;99165.31;;;23.32;63.59
32875;BME280;40468;42.128;24.750;2023-06-26T03:03:59;99169.47;;;23.35;63.13
32875;BME280;40468;42.128;24.750;2023-06-26T03:05:31;99172.13;;;23.35;63.00
32875;BME280;40468;42.128;24.750;2023-06-26T03:07:03;99162.16;;;23.29;63.06
32875;BME280;40468;42.128;24.750;2023-06-26T03:08:36;99183.56;;;23.27;63.36
32875;BME280;40468;42.128;24.750;2023-06-26T03:10:09;99174.97;;;23.25;63.17
32875;BME280;40468;42.128;24.750;2023-06-26T03:11:41;99172.63;;;23.22;63.14
32875;BME280;40468;42.128;24.750;2023-06-26T03:13:13;99175.63;;;23.19;63.15
32875;BME280;40468;42.128;24.750;2023-06-26T03:14:46;99180.44;;;23.24;63.44
32875;BME280;40468;42.128;24.750;2023-06-26T03:16:17;99181.25;;;23.08;63.63
32875;BME280;40468;42.128;24.750;2023-06-26T03:17:49;99176.94;;;23.15;63.52
32875;BME280;40468;42.128;24.750;2023-06-26T03:19:21;99175.63;;;23.19;63.15
32875;BME280;40468;42.128;24.750;2023-06-26T03:20:54;99173.63;;;23.21;63.36
32875;BME280;40468;42.128;24.750;2023-06-26T03:22:26;99179.75;;;23.22;63.42
32875;BME280;40468;42.128;24.750;2023-06-26T03:23:58;99181.44;;;23.23;63.27
32875;BME280;40468;42.128;24.750;2023-06-26T03:25:30;99177.09;;;23.22;63.17
32875;BME280;40468;42.128;24.750;2023-06-26T03:27:02;99177.63;;;23.25;63.33
32875;BME280;40468;42.128;24.750;2023-06-26T03:28:34;99186.22;;;23.27;63.03
32875;BME280;40468;42.128;24.750;2023-06-26T03:30:09;99181.44;;;23.31;63.17
32875;BME280;40468;42.128;24.750;2023-06-26T03:31:41;99183.25;;;23.30;63.39
32875;BME280;40468;42.128;24.750;2023-06-26T03:33:13;99186.56;;;23.32;63.03
32875;BME280;40468;42.128;24.750;2023-06-26T03:34:45;99186.91;;;23.37;63.16
32875;BME280;40468;42.128;24.750;2023-06-26T03:36:16;99196.53;;;23.38;63.04
32875;BME280;40468;42.128;24.750;2023-06-26T03:37:48;99190.88;;;23.42;62.75
32875;BME280;40468;42.128;24.750;2023-06-26T03:39:20;99191.56;;;23.44;62.85
32875;BME280;40468;42.128;24.750;2023-06-26T03:40:52;99197.88;;;23.43;63.03
32875;BME280;40468;42.128;24.750;2023-06-26T03:42:24;99194.22;;;23.44;62.65
32875;BME280;40468;42.128;24.750;2023-06-26T03:43:56;99200.22;;;23.46;62.66
32875;BME280;40468;42.128;24.750;2023-06-26T03:45:29;99180.59;;;23.47;62.42
32875;BME280;40468;42.128;24.750;2023-06-26T03:47:01;99186.56;;;23.32;62.65
32875;BME280;40468;42.128;24.750;2023-06-26T03:48:33;99188.56;;;23.38;62.87
32875;BME280;40468;42.128;24.750;2023-06-26T03:50:05;99184.25;;;23.46;62.51
32875;BME280;40468;42.128;24.750;2023-06-26T03:51:37;99181.41;;;23.47;62.32
32875;BME280;40468;42.128;24.750;2023-06-26T03:53:09;99181.56;;;23.54;62.55
32875;BME280;40468;42.128;24.750;2023-06-26T03:54:41;99183.91;;;23.57;62.51
32875;BME280;40468;42.128;24.750;2023-06-26T03:56:13;99189.22;;;23.57;62.30
32875;BME280;40468;42.128;24.750;2023-06-26T03:57:46;99175.91;;;23.57;62.04
32875;BME280;40468;42.128;24.750;2023-06-26T03:59:17;99180.41;;;23.56;62.14
32875;BME280;40468;42.128;24.750;2023-06-26T04:00:51;99186.41;;;23.58;62.21
32875;BME280;40468;42.128;24.750;2023-06-26T04:02:23;99181.09;;;23.58;62.16
32875;BME280;40468;42.128;24.750;2023-06-26T04:03:55;99187.06;;;23.60;62.11
32875;BME280;40468;42.128;24.750;2023-06-26T04:05:26;99177.75;;;23.65;62.21
32875;BME280;40468;42.128;24.750;2023-06-26T04:06:58;99176.59;;;23.67;61.99
32875;BME280;40468;42.128;24.750;2023-06-26T04:08:30;99174.56;;;23.69;62.16
32875;BME280;40468;42.128;24.750;2023-06-26T04:10:02;99166.78;;;23.68;62.21
32875;BME280;40468;42.128;24.750;2023-06-26T04:11:35;99178.13;;;23.70;62.05
32875;BME280;40468;42.128;24.750;2023-06-26T04:13:07;99172.28;;;23.74;62.11
32875;BME280;40468;42.128;24.750;2023-06-26T04:14:39;99170.28;;;23.76;61.94
32875;BME280;40468;42.128;24.750;2023-06-26T04:16:27;99179.09;;;23.77;61.75
32875;BME280;40468;42.128;24.750;2023-06-26T04:17:59;99180.59;;;23.79;61.67
32875;BME280;40468;42.128;24.750;2023-06-26T04:19:30;99180.41;;;23.81;61.77
32875;BME280;40468;42.128;24.750;2023-06-26T04:21:07;99178.06;;;23.86;61.30
32875;BME280;40468;42.128;24.750;2023-06-26T04:22:41;99166.78;;;23.84;61.19
32875;BME280;40468;42.128;24.750;2023-06-26T04:24:13;99176.75;;;23.90;61.51
32875;BME280;40468;42.128;24.750;2023-06-26T04:25:45;99168.59;;;23.92;61.50
32875;BME280;40468;42.128;24.750;2023-06-26T04:27:17;99168.25;;;23.95;60.96
32875;BME280;40468;42.128;24.750;2023-06-26T04:28:50;99165.94;;;23.92;60.97
32875;BME280;40468;42.128;24.750;2023-06-26T04:30:22;99174.91;;;23.99;60.81
32875;BME280;40468;42.128;24.750;2023-06-26T04:31:55;99175.38;;;24.02;60.77
32875;BME280;40468;42.128;24.750;2023-06-26T04:33:28;99180.34;;;24.05;60.75
32875;BME280;40468;42.128;24.750;2023-06-26T04:35:00;99175.66;;;24.07;60.69
32875;BME280;40468;42.128;24.750;2023-06-26T04:36:33;99178.53;;;24.06;60.88
32875;BME280;40468;42.128;24.750;2023-06-26T04:38:09;99175.84;;;24.06;60.87
32875;BME280;40468;42.128;24.750;2023-06-26T04:39:41;99182.81;;;24.07;60.85
32875;BME280;40468;42.128;24.750;2023-06-26T04:41:13;99180.16;;;24.07;60.70
32875;BME280;40468;42.128;24.750;2023-06-26T04:42:45;99184.50;;;24.08;60.36
32875;BME280;40468;42.128;24.750;2023-06-26T04:44:17;99182.81;;;24.07;60.38
32875;BME280;40468;42.128;24.750;2023-06-26T04:45:48;99182.81;;;24.07;60.66
32875;BME280;40468;42.128;24.750;2023-06-26T04:47:21;99185.34;;;24.09;60.31
32875;BME280;40468;42.128;24.750;2023-06-26T04:48:53;99184.53;;;23.92;60.63
32875;BME280;40468;42.128;24.750;2023-06-26T04:50:23;99192.66;;;23.98;60.76
32875;BME280;40468;42.128;24.750;2023-06-26T04:51:56;99187.66;;;24.03;60.78
32875;BME280;40468;42.128;24.750;2023-06-26T04:53:30;99183.84;;;24.06;60.59
32875;BME280;40468;42.128;24.750;2023-06-26T04:55:03;99187.31;;;24.06;60.62
32875;BME280;40468;42.128;24.750;2023-06-26T04:56:35;99193.94;;;24.11;60.37
32875;BME280;40468;42.128;24.750;2023-06-26T04:58:06;99197.13;;;24.14;60.63
32875;BME280;40468;42.128;24.750;2023-06-26T04:59:39;99187.78;;;24.18;60.65
32875;BME280;40468;42.128;24.750;2023-06-26T05:01:11;99194.13;;;24.17;60.09
32875;BME280;40468;42.128;24.750;2023-06-26T05:02:45;99206.38;;;24.26;59.79
32875;BME280;40468;42.128;24.750;2023-06-26T05:04:17;99209.06;;;24.26;59.75
32875;BME280;40468;42.128;24.750;2023-06-26T05:05:49;99204.06;;;24.23;59.70
32875;BME280;40468;42.128;24.750;2023-06-26T05:07:23;99204.91;;;24.24;59.55
32875;BME280;40468;42.128;24.750;2023-06-26T05:08:55;99216.84;;;24.28;59.22
32875;BME280;40468;42.128;24.750;2023-06-26T05:10:27;99224.13;;;24.34;59.58
32875;BME280;40468;42.128;24.750;2023-06-26T05:11:58;99218.47;;;24.37;59.40
32875;BME280;40468;42.128;24.750;2023-06-26T05:13:30;99223.47;;;24.40;59.03
32875;BME280;40468;42.128;24.750;2023-06-26T05:15:02;99216.31;;;24.41;59.10
32875;BME280;40468;42.128;24.750;2023-06-26T05:16:34;99225.81;;;24.43;58.74
32875;BME280;40468;42.128;24.750;2023-06-26T05:18:07;99223.44;;;24.48;58.65
32875;BME280;40468;42.128;24.750;2023-06-26T05:19:38;99225.63;;;24.53;58.24
32875;BME280;40468;42.128;24.750;2023-06-26T05:21:11;99223.63;;;24.55;58.29
32875;BME280;40468;42.128;24.750;2023-06-26T05:22:43;99235.22;;;24.62;58.06
32875;BME280;40468;42.128;24.750;2023-06-26T05:24:15;99234.72;;;24.67;57.97
32875;BME280;40468;42.128;24.750;2023-06-26T05:25:48;99227.19;;;24.70;57.66
32875;BME280;40468;42.128;24.750;2023-06-26T05:27:21;99233.81;;;24.74;57.61
32875;BME280;40468;42.128;24.750;2023-06-26T05:28:53;99231.63;;;24.78;57.50
32875;BME280;40468;42.128;24.750;2023-06-26T05:30:27;99234.59;;;24.83;57.39
32875;BME280;40468;42.128;24.750;2023-06-26T05:31:59;99228.78;;;24.88;57.54
32875;BME280;40468;42.128;24.750;2023-06-26T05:33:37;99230.53;;;24.95;57.18
32875;BME280;40468;42.128;24.750;2023-06-26T05:35:13;99231.00;;;24.99;57.17
32875;BME280;40468;42.128;24.750;2023-06-26T05:36:46;99226.19;;;25.03;56.92
32875;BME280;40468;42.128;24.750;2023-06-26T05:38:21;99238.31;;;25.05;56.74
32875;BME280;40468;42.128;24.750;2023-06-26T05:39:54;99232.97;;;25.05;56.15
32875;BME280;40468;42.128;24.750;2023-06-26T05:41:27;99233.78;;;25.14;56.20
32875;BME280;40468;42.128;24.750;2023-06-26T05:42:59;99241.97;;;25.04;56.47
32875;BME280;40468;42.128;24.750;2023-06-26T05:44:33;99236.59;;;25.12;56.17
32875;BME280;40468;42.128;24.750;2023-06-26T05:46:05;99237.56;;;25.19;55.96
32875;BME280;40468;42.128;24.750;2023-06-26T05:47:37;99236.41;;;25.22;55.88
32875;BME280;40468;42.128;24.750;2023-06-26T05:49:11;99233.22;;;25.27;55.52
32875;BME280;40468;42.128;24.750;2023-06-26T05:50:43;99232.03;;;25.29;55.19
32875;BME280;40468;42.128;24.750;2023-06-26T05:52:16;99230.81;;;25.32;55.51
32875;BME280;40468;42.128;24.750;2023-06-26T05:53:52;99232.81;;;25.38;55.03
32875;BME280;40468;42.128;24.750;2023-06-26T05:57:53;99231.31;;;25.35;54.86
32875;BME280;40468;42.128;24.750;2023-06-26T05:59:59;99234.44;;;25.39;54.49
32875;BME280;40468;42.128;24.750;2023-06-26T06:01:39;99235.75;;;25.43;54.73
32875;BME280;40468;42.128;24.750;2023-06-26T06:05:17;99237.94;;;25.39;54.36
32875;BME280;40468;42.128;24.750;2023-06-26T06:06:49;99228.41;;;25.45;54.36
32875;BME280;40468;42.128;24.750;2023-06-26T06:08:21;99227.69;;;25.51;54.50
32875;BME280;40468;42.128;24.750;2023-06-26T06:09:53;99231.28;;;25.58;54.30
32875;BME280;40468;42.128;24.750;2023-06-26T06:11:25;99236.53;;;25.67;53.70
32875;BME280;40468;42.128;24.750;2023-06-26T06:12:58;99236.47;;;25.75;53.64
32875;BME280;40468;42.128;24.750;2023-06-26T06:14:33;99232.63;;;25.77;53.61
32875;BME280;40468;42.128;24.750;2023-06-26T06:16:06;99236.78;;;25.80;53.47
32875;BME280;40468;42.128;24.750;2023-06-26T06:17:38;99244.78;;;25.80;53.51
32875;BME280;40468;42.128;24.750;2023-06-26T06:19:11;99242.28;;;25.78;53.16
32875;BME280;40468;42.128;24.750;2023-06-26T06:20:45;99244.56;;;25.81;52.93
32875;BME280;40468;42.128;24.750;2023-06-26T06:22:20;99252.44;;;25.83;53.04
32875;BME280;40468;42.128;24.750;2023-06-26T06:23:52;99247.75;;;25.85;53.04
32875;BME280;40468;42.128;24.750;2023-06-26T06:25:24;99239.94;;;25.83;53.25
32875;BME280;40468;42.128;24.750;2023-06-26T06:26:56;99244.91;;;25.86;53.16
32875;BME280;40468;42.128;24.750;2023-06-26T06:28:29;99232.03;;;25.90;52.99
32875;BME280;40468;42.128;24.750;2023-06-26T06:30:01;99236.56;;;26.04;52.69
32875;BME280;40468;42.128;24.750;2023-06-26T06:31:34;99239.16;;;26.13;52.41
32875;BME280;40468;42.128;24.750;2023-06-26T06:33:06;99241.44;;;26.16;52.24
32875;BME280;40468;42.128;24.750;2023-06-26T06:34:38;99237.31;;;26.13;52.15
32875;BME280;40468;42.128;24.750;2023-06-26T06:36:12;99235.75;;;26.19;52.24
32875;BME280;40468;42.128;24.750;2023-06-26T06:37:44;99237.03;;;26.23;52.13
32875;BME280;40468;42.128;24.750;2023-06-26T06:39:16;99241.97;;;26.26;52.15
32875;BME280;40468;42.128;24.750;2023-06-26T06:40:48;99233.97;;;26.26;52.01
32875;BME280;40468;42.128;24.750;2023-06-26T06:42:20;99235.16;;;26.23;51.84
32875;BME280;40468;42.128;24.750;2023-06-26T06:43:52;99241.06;;;26.19;52.05
32875;BME280;40468;42.128;24.750;2023-06-26T06:45:24;99236.09;;;26.16;51.55
32875;BME280;40468;42.128;24.750;2023-06-26T06:46:56;99243.75;;;26.19;51.92
32875;BME280;40468;42.128;24.750;2023-06-26T06:48:28;99235.09;;;26.17;51.70
32875;BME280;40468;42.128;24.750;2023-06-26T06:50:01;99230.13;;;26.14;51.80
32875;BME280;40468;42.128;24.750;2023-06-26T06:51:40;99235.66;;;26.12;51.59
32875;BME280;40468;42.128;24.750;2023-06-26T06:53:12;99230.41;;;26.19;51.73
32875;BME280;40468;42.128;24.750;2023-06-26T06:54:52;99237.03;;;26.23;51.57
32875;BME280;40468;42.128;24.750;2023-06-26T06:56:24;99234.19;;;26.24;52.04
32875;BME280;40468;42.128;24.750;2023-06-26T06:57:56;99233.97;;;26.26;51.56
32875;BME280;40468;42.128;24.750;2023-06-26T06:59:29;99229.38;;;26.20;51.38
32875;BME280;40468;42.128;24.750;2023-06-26T07:01:02;99236.47;;;26.27;51.19
32875;BME280;40468;42.128;24.750;2023-06-26T07:02:35;99233.16;;;26.25;51.00
32875;BME280;40468;42.128;24.750;2023-06-26T07:04:07;99238.94;;;26.29;51.23
32875;BME280;40468;42.128;24.750;2023-06-26T07:05:41;99241.91;;;26.34;51.22
32875;BME280;40468;42.128;24.750;2023-06-26T07:07:18;99241.16;;;26.40;50.92
32875;BME280;40468;42.128;24.750;2023-06-26T07:08:50;99244.09;;;26.45;50.83
32875;BME280;40468;42.128;24.750;2023-06-26T07:10:23;99242.91;;;26.48;50.75
32875;BME280;40468;42.128;24.750;2023-06-26T07:11:55;99243.41;;;26.51;50.28
32875;BME280;40468;42.128;24.750;2023-06-26T07:13:28;99234.81;;;26.56;50.11
32875;BME280;40468;42.128;24.750;2023-06-26T07:15:01;99234.53;;;26.66;50.01
32875;BME280;40468;42.128;24.750;2023-06-26T07:16:35;99238.75;;;26.75;49.65
32875;BME280;40468;42.128;24.750;2023-06-26T07:18:07;99231.03;;;26.80;49.75
32875;BME280;40468;42.128;24.750;2023-06-26T07:19:39;99234.75;;;26.86;49.35
32875;BME280;40468;42.128;24.750;2023-06-26T07:21:11;99229.06;;;26.89;48.81
32875;BME280;40468;42.128;24.750;2023-06-26T07:22:48;99239.16;;;26.93;48.43
32875;BME280;40468;42.128;24.750;2023-06-26T07:24:24;99225.63;;;26.95;48.20
32875;BME280;40468;42.128;24.750;2023-06-26T07:25:56;99230.59;;;26.98;48.35
32875;BME280;40468;42.128;24.750;2023-06-26T07:27:29;99227.06;;;26.97;48.16
32875;BME280;40468;42.128;24.750;2023-06-26T07:29:02;99224.22;;;26.99;47.92
32875;BME280;40468;42.128;24.750;2023-06-26T07:30:34;99229.56;;;26.99;47.94
32875;BME280;40468;42.128;24.750;2023-06-26T07:32:07;99225.69;;;27.02;47.79
32875;BME280;40468;42.128;24.750;2023-06-26T07:33:39;99225.50;;;27.03;47.94
32875;BME280;40468;42.128;24.750;2023-06-26T07:35:11;99223.47;;;27.05;47.74
32875;BME280;40468;42.128;24.750;2023-06-26T07:36:44;99220.63;;;27.07;48.04
32875;BME280;40468;42.128;24.750;2023-06-26T07:38:17;99226.84;;;27.14;47.30
32875;BME280;40468;42.128;24.750;2023-06-26T07:39:49;99224.66;;;27.03;47.86
32875;BME280;40468;42.128;24.750;2023-06-26T07:41:21;99224.19;;;27.14;47.80
32875;BME280;40468;42.128;24.750;2023-06-26T07:42:53;99219.63;;;27.29;47.18
32875;BME280;40468;42.128;24.750;2023-06-26T07:44:25;99220.16;;;27.39;47.27
32875;BME280;40468;42.128;24.750;2023-06-26T07:45:57;99220.63;;;27.50;47.13
32875;BME280;40468;42.128;24.750;2023-06-26T07:47:30;99219.09;;;27.62;46.75
32875;BME280;40468;42.128;24.750;2023-06-26T07:49:02;99221.66;;;27.77;46.44
32875;BME280;40468;42.128;24.750;2023-06-26T07:50:34;99216.03;;;27.86;45.46
32875;BME280;40468;42.128;24.750;2023-06-26T07:52:06;99217.06;;;27.92;45.40
32875;BME280;40468;42.128;24.750;2023-06-26T07:53:42;99219.41;;;28.02;45.16
32875;BME280;40468;42.128;24.750;2023-06-26T07:55:17;99224.41;;;28.11;45.01
32875;BME280;40468;42.128;24.750;2023-06-26T07:56:54;99229.41;;;28.21;44.50
32875;BME280;40468;42.128;24.750;2023-06-26T07:58:26;99231.94;;;28.29;44.52
32875;BME280;40468;42.128;24.750;2023-06-26T07:59:58;99228.28;;;28.37;43.88
32875;BME280;40468;42.128;24.750;2023-06-26T08:01:31;99232.03;;;28.43;44.00
32875;BME280;40468;42.128;24.750;2023-06-26T08:03:03;99230.63;;;28.53;43.76
32875;BME280;40468;42.128;24.750;2023-06-26T08:04:36;99229.88;;;28.66;43.31
32875;BME280;40468;42.128;24.750;2023-06-26T08:06:08;99221.28;;;28.84;43.39
32875;BME280;40468;42.128;24.750;2023-06-26T08:07:40;99225.22;;;29.01;43.10
32875;BME280;40468;42.128;24.750;2023-06-26T08:09:13;99221.16;;;29.12;42.53
32875;BME280;40468;42.128;24.750;2023-06-26T08:10:45;99225.06;;;29.10;42.16